LTACLTAT

Guest
Details From LTAC - ESENBOGA
To LTAT - ERHAC
Flight Number -
Tags generated
Created
Modified
Stats Distance 258 nm / 479 km
Max Altitude 27,500 ft / 8,382 m
Waypoints 5
Social Downloads 1
Likes 0
Share VATSIM

Download

Looking for another format? Having issues loading an existing format? Contact us
Advertisement - Login to hide

Notes

Basic altitude profile: - Ascent Rate: 2500ft/min - Ascent Speed: 250kts - Cruise Altitude: 35000ft - Cruise Speed: 420kts - Descent Rate: 1500ft/min - Descent Speed: 250kts Options: - Use NATs: yes - Use PACOTS: yes - Use low airways: yes - Use high airways: yes

Route

LTAC KUBER G8 MARTI UG8 GEM LTAT

ID Type Via Altitude Latitude Longitude Leg Dist Tot Dist Heading (true) Name
O LTAC APT - 0 ft / 0 m 40.12828˚ 32.99540˚ - 0 nm - ESENBOGA
KUBER FIX - 11,900 ft / 3,627 m 39.83333˚ 33.61111˚ 33 nm 33 nm 122° / 122° -
MARTI FIX G8 (AWY-LO) 27,500 ft / 8,382 m 39.40167˚ 35.18278˚ 77 nm 110 nm 109° / 110° -
GEM VOR UG8 (AWY-HI) 27,500 ft / 8,382 m 39.15528˚ 36.02917˚ 42 nm 152 nm 110° / 111° GEMEREK VOR-DME
O LTAT APT - 0 ft / 0 m 38.43535˚ 38.09101˚ 105 nm 258 nm 113° / 115° ERHAC

Altitude Profile

Advertisement - Login to hide

Weather


0- 5 10 15 20 25 30 35+ Temperature / ° C

Clouds and Precipitation
Forecast for 2017-12-15 12:00 UTC. Updated an hour ago

Ground ~20,000 ft ~40,000 ft Winds

LTAC

Details ICAO LTAC (ESB)
Name ESENBOGA
Region Turkey
Timezone Europe/Istanbul (UTC+3.0)
Stats Elevation 3,125 ft / 953 m (AMSL)
Location 40.128285° 32.995403°
Runways 2
Magnetic Variation 5.713° E

METAR

LTAC 150950Z VRB01KT 0550 R03R/0750D R21L/0650U R03L/0650D R21R/0400U FG VV002 01/01 Q1020 BECMG TL1050 1200 BCFG BKN003

Decode

TAF

Not found

Departure Runways

ID Width Length Bearing (true) Bearing (mag) Surface Threshold Offset Overrun Length
03L 148 ft / 45 m 12,334 ft / 3,760 m 36.19° 30.48° Asphalt 1,148 ft / 350 m 200 ft / 61 m
03R 197 ft / 60 m 12,258 ft / 3,736 m 35.29° 29.58° Asphalt 0 ft / 0 m 200 ft / 61 m
21L 197 ft / 60 m 12,258 ft / 3,736 m 215.31° 209.60° Asphalt 0 ft / 0 m 200 ft / 61 m
21R 148 ft / 45 m 12,334 ft / 3,760 m 216.21° 210.50° Asphalt 0 ft / 0 m 200 ft / 61 m

LTAT

Details ICAO LTAT (MLX)
Name ERHAC
Region Turkey
Timezone Europe/Istanbul (UTC+3.0)
Stats Elevation 2,828 ft / 862 m (AMSL)
Location 38.435346° 38.091007°
Runways 1
Magnetic Variation 5.704° E

METAR

LTAT 150950Z VRB02KT 4900 BR OVC004 01/M00 Q1023 NOSIG

Decode

TAF

Not found

Destination Runways

ID Width Length Bearing (true) Bearing (mag) Surface Threshold Offset Overrun Length
03 148 ft / 45 m 11,000 ft / 3,353 m 31.39° 25.69° Asphalt 0 ft / 0 m 868 ft / 265 m
21 148 ft / 45 m 11,000 ft / 3,353 m 211.40° 205.70° Asphalt 0 ft / 0 m 895 ft / 273 m

Popular Alternatives